createdAt,value
2022-08-26T00:06:34.246Z,6.10
2022-08-26T00:21:37.603Z,6.43
2022-08-26T00:36:41.068Z,6.22
2022-08-26T00:51:49.733Z,6.25
2022-08-26T01:06:54.869Z,6.30
2022-08-26T01:21:58.846Z,6.13
2022-08-26T01:37:15.467Z,6.45
2022-08-26T01:52:24.110Z,7.13
2022-08-26T02:07:32.085Z,6.93
2022-08-26T02:22:35.965Z,6.93
2022-08-26T02:37:38.672Z,7.00
2022-08-26T02:52:44.043Z,7.18
2022-08-26T03:07:47.087Z,6.68
2022-08-26T03:22:51.726Z,6.72
2022-08-26T03:37:54.187Z,6.93
2022-08-26T03:52:57.126Z,7.07
2022-08-26T04:07:59.226Z,6.88
2022-08-26T04:23:01.366Z,7.38
2022-08-26T04:38:03.627Z,6.70
2022-08-26T04:53:08.078Z,7.57
2022-08-26T05:08:12.066Z,7.47
2022-08-26T05:23:15.084Z,7.05
2022-08-26T05:38:19.887Z,6.75
2022-08-26T05:53:23.981Z,7.00
2022-08-26T06:08:28.125Z,6.90
2022-08-26T06:23:48.984Z,6.32
2022-08-26T06:38:52.535Z,5.90
2022-08-26T06:53:56.786Z,5.63
2022-08-26T07:09:05.160Z,5.88
2022-08-26T07:24:08.166Z,6.43
2022-08-26T07:39:10.307Z,5.82
2022-08-26T07:54:12.353Z,5.35
2022-08-26T08:09:16.234Z,5.57
2022-08-26T08:24:18.285Z,6.05
2022-08-26T08:39:20.587Z,5.93
2022-08-26T08:54:27.034Z,6.50
2022-08-26T09:09:38.308Z,6.05
2022-08-26T09:24:49.174Z,5.80
2022-08-26T09:39:51.554Z,5.82
2022-08-26T09:55:11.714Z,5.20
2022-08-26T10:10:28.269Z,5.97
2022-08-26T10:25:51.724Z,5.97
2022-08-26T10:41:10.540Z,5.45
2022-08-26T10:56:53.269Z,4.75
2022-08-26T11:11:58.828Z,5.20
2022-08-26T11:27:01.760Z,4.10
2022-08-26T11:42:29.804Z,4.65
2022-08-26T11:57:36.279Z,4.93
2022-08-26T12:12:39.819Z,4.75
2022-08-26T12:27:45.339Z,5.22
2022-08-26T12:42:52.323Z,3.50
2022-08-26T12:58:23.866Z,3.40
2022-08-26T13:13:27.201Z,4.40
2022-08-26T13:28:29.870Z,4.28
2022-08-26T13:43:33.079Z,3.58
2022-08-26T13:58:36.626Z,3.63
2022-08-26T14:13:39.789Z,3.70
2022-08-26T14:28:42.258Z,3.53
2022-08-26T14:43:55.031Z,3.30
2022-08-26T14:58:57.235Z,3.78
2022-08-26T15:14:00.407Z,3.78
2022-08-26T15:29:05.049Z,4.03
2022-08-26T15:44:08.928Z,4.20
2022-08-26T15:59:12.680Z,3.90
2022-08-26T16:14:16.577Z,3.95
2022-08-26T16:29:19.686Z,3.83
2022-08-26T16:44:23.124Z,4.82
2022-08-26T16:59:33.508Z,5.35
2022-08-26T17:14:36.080Z,6.20
2022-08-26T17:29:38.439Z,6.20
2022-08-26T17:44:40.897Z,5.13
2022-08-26T17:59:43.264Z,6.07
2022-08-26T18:14:47.298Z,7.20
2022-08-26T18:29:50.816Z,6.40
2022-08-26T18:44:53.444Z,6.45
2022-08-26T18:59:55.869Z,6.57
2022-08-26T19:14:58.311Z,6.75
2022-08-26T19:30:03.071Z,6.82
2022-08-26T19:45:24.275Z,7.30
2022-08-26T20:00:32.048Z,7.18
2022-08-26T20:15:34.566Z,7.43
2022-08-26T20:30:36.986Z,7.57
2022-08-26T20:45:39.394Z,6.78
2022-08-26T21:00:41.863Z,8.10
2022-08-26T21:15:44.309Z,7.90
2022-08-26T21:30:46.706Z,7.97
2022-08-26T21:45:49.980Z,8.10
2022-08-26T22:00:53.031Z,7.55
2022-08-26T22:15:57.982Z,12.70
2022-08-26T22:31:00.956Z,7.75
2022-08-26T22:46:03.545Z,7.68
2022-08-26T23:01:28.780Z,7.88
2022-08-26T23:16:37.843Z,7.57
2022-08-26T23:31:42.906Z,7.85
2022-08-26T23:46:45.403Z,8.20
